createdAt,value
2018-07-15T00:01:08.885Z,2.20
2018-07-15T00:30:24.319Z,2.37
2018-07-15T11:33:01.512Z,6.07
2018-07-15T11:35:30.538Z,5.87
2018-07-15T11:37:58.357Z,6.87
2018-07-15T11:40:25.897Z,7.20
2018-07-15T11:42:53.394Z,6.63
2018-07-15T11:45:21.306Z,6.20
2018-07-15T11:47:48.851Z,6.77
2018-07-15T11:50:17.281Z,5.40
2018-07-15T11:52:44.866Z,5.90
2018-07-15T11:55:12.441Z,6.00
2018-07-15T11:57:40.071Z,5.70
2018-07-15T12:00:31.550Z,6.40
2018-07-15T12:02:59.321Z,5.63
2018-07-15T12:05:26.834Z,6.27
2018-07-15T12:07:54.387Z,5.87
2018-07-15T12:10:21.908Z,6.10
2018-07-15T12:12:49.395Z,6.27
2018-07-15T12:15:17.086Z,6.40
2018-07-15T12:17:44.607Z,5.97
2018-07-15T12:20:12.119Z,6.17
2018-07-15T12:22:39.649Z,6.10
2018-07-15T12:25:07.227Z,6.33
2018-07-15T12:27:34.764Z,7.17
2018-07-15T12:30:02.274Z,6.00
2018-07-15T12:32:29.750Z,6.43
2018-07-15T12:34:57.222Z,6.77
2018-07-15T12:37:24.864Z,6.57
2018-07-15T12:39:52.315Z,7.07
2018-07-15T12:42:19.923Z,5.87
2018-07-15T12:44:47.687Z,5.90
2018-07-15T12:47:15.379Z,6.07
2018-07-15T12:49:42.874Z,6.53
2018-07-15T12:52:10.412Z,6.63
2018-07-15T12:54:37.922Z,7.30
2018-07-15T12:57:05.480Z,7.10
2018-07-15T12:59:32.997Z,5.80
2018-07-15T13:02:00.485Z,5.80
2018-07-15T13:04:28.000Z,5.47
2018-07-15T13:06:55.530Z,6.80
2018-07-15T13:09:23.012Z,6.00
2018-07-15T13:11:50.629Z,6.87
2018-07-15T13:14:18.124Z,7.10
2018-07-15T13:16:45.601Z,7.63
2018-07-15T13:19:13.071Z,6.90
2018-07-15T13:21:40.561Z,6.63
2018-07-15T13:24:08.119Z,6.73
2018-07-15T13:26:35.641Z,7.63
2018-07-15T13:29:03.282Z,7.10
2018-07-15T13:31:30.892Z,6.70
2018-07-15T13:33:58.393Z,6.70
2018-07-15T13:36:25.956Z,6.60
2018-07-15T13:38:53.493Z,6.70
2018-07-15T13:41:21.011Z,7.40
2018-07-15T13:43:48.533Z,6.53
2018-07-15T13:46:16.067Z,7.07
2018-07-15T13:48:43.583Z,7.07
2018-07-15T13:51:11.183Z,6.80
2018-07-15T13:53:38.539Z,6.57
2018-07-15T13:56:06.175Z,6.90
2018-07-15T13:58:33.833Z,6.80
2018-07-15T14:01:01.341Z,6.73
2018-07-15T14:03:28.895Z,6.80
2018-07-15T14:05:56.366Z,7.07
2018-07-15T14:08:23.832Z,7.00
2018-07-15T14:10:51.302Z,6.20
2018-07-15T14:13:18.878Z,7.30
2018-07-15T14:15:46.320Z,7.40
2018-07-15T14:18:13.812Z,6.47
2018-07-15T14:20:41.276Z,7.70
2018-07-15T14:23:08.761Z,6.97
2018-07-15T14:25:36.215Z,6.90
2018-07-15T14:28:03.885Z,8.00
2018-07-15T14:30:31.485Z,7.13
2018-07-15T14:32:59.003Z,7.37
2018-07-15T14:35:26.464Z,6.97
2018-07-15T14:37:54.200Z,6.97
2018-07-15T14:40:21.623Z,6.77
2018-07-15T14:42:49.115Z,6.33
2018-07-15T14:45:16.733Z,7.20
2018-07-15T14:47:44.220Z,7.60
2018-07-15T14:50:12.035Z,7.00
2018-07-15T14:52:39.533Z,6.63
2018-07-15T14:55:07.170Z,7.53
2018-07-15T14:57:34.699Z,7.10
2018-07-15T15:00:02.396Z,6.53
2018-07-15T15:02:30.053Z,7.53
2018-07-15T15:04:57.524Z,7.20
2018-07-15T15:07:25.121Z,6.30
2018-07-15T15:09:52.626Z,6.60
2018-07-15T15:12:20.066Z,6.50
2018-07-15T15:14:47.641Z,6.80
2018-07-15T15:17:15.093Z,6.60
2018-07-15T15:19:42.619Z,6.47
2018-07-15T15:22:10.298Z,6.03
2018-07-15T15:24:37.797Z,6.70
2018-07-15T15:27:05.263Z,6.20
2018-07-15T15:29:32.889Z,11.80
2018-07-15T15:32:00.344Z,6.20
2018-07-15T15:34:27.802Z,6.57
2018-07-15T15:36:55.345Z,6.23
2018-07-15T15:39:22.819Z,6.60
2018-07-15T15:41:50.273Z,6.90
2018-07-15T15:44:17.921Z,5.43
2018-07-15T15:46:45.391Z,6.13
2018-07-15T15:49:12.863Z,7.03
2018-07-15T15:51:40.404Z,5.43
2018-07-15T15:54:07.891Z,5.33
2018-07-15T15:56:35.347Z,6.17
2018-07-15T15:59:02.913Z,5.63
2018-07-15T16:01:30.477Z,6.40
2018-07-15T16:03:57.968Z,5.27
2018-07-15T16:06:25.454Z,5.40
2018-07-15T16:08:52.968Z,5.23
2018-07-15T16:11:20.453Z,5.20
2018-07-15T16:13:48.022Z,4.63
2018-07-15T16:16:15.673Z,5.17
2018-07-15T16:18:43.136Z,5.20
2018-07-15T16:21:10.703Z,5.10
2018-07-15T16:23:38.347Z,4.80
2018-07-15T16:26:05.808Z,5.67
2018-07-15T16:28:33.268Z,5.23
2018-07-15T16:31:00.775Z,5.10
2018-07-15T16:33:28.288Z,5.30
2018-07-15T16:35:55.799Z,4.97
2018-07-15T16:38:23.289Z,5.00
2018-07-15T16:40:50.864Z,4.80
2018-07-15T16:43:18.357Z,4.47
2018-07-15T16:45:45.843Z,4.77
2018-07-15T16:48:13.332Z,5.07
2018-07-15T16:50:40.891Z,4.87
2018-07-15T16:53:08.344Z,4.50
2018-07-15T16:55:35.859Z,4.30
2018-07-15T16:58:03.345Z,4.67
2018-07-15T17:00:31.021Z,4.20
2018-07-15T17:02:58.508Z,4.50
2018-07-15T17:05:25.997Z,4.10
2018-07-15T17:07:53.464Z,4.47
2018-07-15T17:10:20.953Z,5.23
2018-07-15T17:12:48.435Z,5.17
2018-07-15T17:15:15.942Z,4.70
2018-07-15T17:17:43.407Z,4.80
2018-07-15T17:20:10.934Z,3.93
2018-07-15T17:22:38.387Z,5.03
2018-07-15T17:25:05.943Z,4.43
2018-07-15T17:27:33.414Z,4.70
2018-07-15T17:30:00.909Z,4.40
2018-07-15T17:32:28.361Z,4.43
2018-07-15T17:34:55.885Z,4.70
2018-07-15T17:37:23.352Z,4.83
2018-07-15T17:39:50.935Z,4.30
2018-07-15T17:42:18.386Z,4.40
2018-07-15T17:44:45.876Z,5.17
2018-07-15T17:47:13.348Z,4.63
2018-07-15T17:49:40.833Z,5.07
2018-07-15T17:52:08.380Z,4.90
2018-07-15T17:54:35.997Z,4.40
2018-07-15T17:57:03.524Z,4.20
2018-07-15T17:59:31.029Z,4.70
2018-07-15T18:01:58.535Z,5.00
2018-07-15T18:04:26.019Z,4.20
2018-07-15T18:06:53.537Z,4.53
2018-07-15T18:09:21.024Z,4.83
2018-07-15T18:11:48.531Z,4.50
2018-07-15T18:14:16.008Z,4.77
2018-07-15T18:16:43.502Z,4.93
2018-07-15T18:19:10.989Z,5.07
2018-07-15T18:21:38.513Z,4.70
2018-07-15T18:24:06.138Z,4.87
2018-07-15T18:26:33.597Z,5.33
2018-07-15T18:29:01.058Z,4.20
2018-07-15T18:31:28.541Z,4.20
2018-07-15T18:33:56.086Z,4.30
2018-07-15T18:36:23.581Z,4.80
2018-07-15T18:38:51.112Z,5.30
2018-07-15T18:41:18.617Z,5.03
2018-07-15T18:43:46.097Z,4.63
2018-07-15T18:46:13.592Z,5.10
2018-07-15T18:48:41.057Z,4.90
2018-07-15T18:51:08.552Z,5.23
2018-07-15T18:53:36.076Z,4.60
2018-07-15T18:56:03.944Z,4.93
2018-07-15T18:58:31.418Z,4.70
2018-07-15T19:00:58.919Z,4.20
2018-07-15T19:03:26.392Z,4.60
2018-07-15T19:05:53.922Z,4.97
2018-07-15T19:08:21.360Z,4.93
2018-07-15T19:10:48.846Z,5.03
2018-07-15T19:13:16.423Z,4.90
2018-07-15T19:15:43.893Z,5.47
2018-07-15T19:18:11.410Z,4.37
2018-07-15T19:20:38.917Z,5.40
2018-07-15T19:23:06.397Z,4.77
2018-07-15T19:25:33.936Z,5.50
2018-07-15T19:28:01.614Z,5.00
2018-07-15T19:30:29.080Z,5.43
2018-07-15T19:32:56.565Z,5.63
2018-07-15T19:35:24.067Z,5.20
2018-07-15T19:37:51.576Z,4.63
2018-07-15T19:40:19.145Z,5.00
2018-07-15T19:42:46.621Z,5.37
2018-07-15T19:45:14.085Z,5.53
2018-07-15T19:47:41.611Z,5.70
2018-07-15T19:50:09.185Z,5.60
2018-07-15T19:52:36.721Z,5.13
2018-07-15T19:55:04.389Z,5.83
2018-07-15T19:57:31.878Z,5.20
2018-07-15T19:59:59.355Z,4.93
2018-07-15T20:02:26.868Z,6.33
2018-07-15T20:04:54.325Z,5.87
2018-07-15T20:07:21.818Z,5.30
2018-07-15T20:09:49.318Z,5.87
2018-07-15T20:12:16.848Z,5.53
2018-07-15T20:14:44.332Z,6.00
2018-07-15T20:17:11.855Z,5.57
2018-07-15T20:19:39.325Z,5.50
2018-07-15T20:22:07.066Z,6.13
2018-07-15T20:24:34.607Z,6.30
2018-07-15T20:27:02.137Z,7.40
2018-07-15T20:29:29.621Z,6.60
2018-07-15T20:31:57.188Z,7.10
2018-07-15T20:34:24.761Z,6.07
2018-07-15T20:36:52.286Z,6.30
2018-07-15T20:39:19.746Z,5.90
2018-07-15T20:41:47.273Z,5.70
2018-07-15T20:44:14.742Z,5.73
2018-07-15T20:46:42.351Z,6.00
2018-07-15T20:49:09.875Z,6.60
2018-07-15T20:51:37.409Z,6.30
2018-07-15T20:54:04.954Z,6.10
2018-07-15T20:56:32.492Z,6.23
2018-07-15T20:58:59.949Z,5.80
2018-07-15T21:01:27.518Z,6.47
2018-07-15T21:03:59.008Z,6.67
2018-07-15T21:06:26.677Z,6.80
2018-07-15T21:08:54.155Z,6.47
2018-07-15T21:11:21.667Z,5.90
2018-07-15T21:13:49.251Z,6.60
2018-07-15T21:16:16.809Z,6.23
2018-07-15T21:18:44.465Z,6.00
2018-07-15T21:21:11.952Z,6.80
2018-07-15T21:23:39.469Z,6.73
2018-07-15T21:26:07.047Z,6.80
2018-07-15T21:28:34.541Z,6.50
2018-07-15T21:31:02.027Z,6.80
2018-07-15T21:33:29.530Z,6.40
2018-07-15T21:35:56.994Z,6.80
2018-07-15T21:38:24.532Z,6.83
2018-07-15T21:40:52.043Z,6.70
2018-07-15T21:43:19.522Z,6.70
2018-07-15T21:45:46.994Z,6.80
2018-07-15T21:48:14.472Z,6.70
2018-07-15T21:50:42.427Z,7.30
2018-07-15T21:53:09.904Z,6.80
2018-07-15T21:55:37.437Z,7.00
2018-07-15T21:58:05.080Z,6.33
2018-07-15T22:00:32.539Z,7.90
2018-07-15T22:03:00.101Z,7.33
2018-07-15T22:05:27.508Z,7.10
2018-07-15T22:08:06.733Z,6.07
2018-07-15T22:10:38.796Z,6.47
2018-07-15T22:13:06.448Z,6.30
2018-07-15T22:15:33.981Z,7.33
2018-07-15T22:18:01.468Z,7.40
2018-07-15T22:20:28.945Z,6.73
2018-07-15T22:22:56.444Z,6.83
2018-07-15T22:25:23.931Z,7.30
2018-07-15T22:27:51.577Z,6.90
2018-07-15T22:30:19.031Z,6.53
2018-07-15T22:32:46.562Z,6.83
2018-07-15T22:35:14.139Z,6.47
2018-07-15T22:37:41.729Z,7.43
2018-07-15T22:40:09.334Z,6.80
2018-07-15T22:42:36.884Z,7.00
2018-07-15T22:45:04.486Z,7.00
2018-07-15T22:47:31.957Z,6.67
2018-07-15T22:49:59.466Z,6.80
2018-07-15T22:52:26.945Z,6.50
2018-07-15T22:54:54.400Z,6.90
2018-07-15T22:57:21.980Z,7.20
2018-07-15T22:59:49.471Z,6.70
2018-07-15T23:02:17.101Z,6.67
2018-07-15T23:05:55.948Z,6.40
2018-07-15T23:08:24.416Z,6.60
2018-07-15T23:10:52.044Z,6.77
2018-07-15T23:13:19.891Z,6.40
2018-07-15T23:15:47.800Z,7.60
2018-07-15T23:18:15.356Z,7.03
2018-07-15T23:20:43.617Z,6.60
2018-07-15T23:23:11.703Z,6.57
2018-07-15T23:25:39.364Z,7.80
2018-07-15T23:28:08.058Z,6.80
2018-07-15T23:30:36.305Z,6.70
2018-07-15T23:33:04.315Z,6.70
2018-07-15T23:35:32.356Z,6.20
2018-07-15T23:37:59.852Z,6.47
2018-07-15T23:40:27.419Z,6.37
2018-07-15T23:42:55.737Z,6.63
2018-07-15T23:45:23.958Z,6.60
2018-07-15T23:47:51.791Z,6.90
2018-07-15T23:50:19.344Z,7.70
2018-07-15T23:52:46.803Z,6.87
2018-07-15T23:55:14.567Z,6.67
2018-07-15T23:57:42.021Z,6.67
